Terminal Aerodrome Forecast
Issued by NWS

Current Version | Previous Version | Graphics & Text | Print | Product List | Glossary On
Versions: 1 2 3 4 5 6 7 8 9 10 11 12 13 14 15 16 17 18 19 20
000
FTUS41 KILN 182300
TAFLUK
TAF
KLUK 182321Z 1900/1924 32004KT P6SM SCT028 OVC060
     FM190600 33004KT P6SM OVC025
     FM191600 36004KT P6SM BKN028=

USA.gov is the U.S. government's official web portal to all federal, state and local government web resources and services.